Adriana — 9A6282 — position and weather

sailwx.info

Track history (hours):
 
Tides and Currents Weather Stations Pressure Air Temp Water Temp Dewpoint Dewpoint Depression Visibility Wind Speed Wind Dir Waves Ship Positions

Adriana

Last reported at 2018-Apr-16 13:17 UTC. Time now 2018-Apr-22 20:20 UTC.
Position N 45°15' E 014°26'.

Length 40 m; beam 10 m.

Type: High speed craft. MMSI: 238112440.

Date/timePositionNaut miles runAvg speedWind from/ knotsBaromVisibWave heightAir tempDewpointWater temp
2018-Apr-16 13:17N 45°15' E 014°26'2 0.1
2018-Apr-15 13:11N 45°17' E 014°26'0 0.0
2018-Apr-14 06:39N 45°17' E 014°26'1323.6
2018-Apr-14 06:06N 45°04' E 014°26'11 0.7
2018-Apr-13 14:17N 44°55' E 014°33'621.5
2018-Apr-13 14:00N 44°60' E 014°28'1120.7
2018-Apr-13 13:28N 45°11' E 014°26'8 1.1
2018-Apr-13 06:40N 45°18' E 014°26'423.7
2018-Apr-13 06:31N 45°15' E 014°26'1223.3
2018-Apr-13 06:00N 45°03' E 014°26'1323.3
2018-Apr-13 05:28N 44°52' E 014°35'1212.8
2018-Apr-13 04:33N 44°42' E 014°43'623.6
2018-Apr-13 04:19N 44°37' E 014°47'2 0.1
2018-Apr-12 15:30N 44°36' E 014°48'1113.5
2018-Apr-12 14:40N 44°46' E 014°41'422.4
2018-Apr-12 14:29N 44°49' E 014°37'27 1.1
2018-Apr-11 13:17N 45°15' E 014°26'  
2018-Apr-08 13:31N 45°09' E 014°26'223.0
2018-Apr-08 13:25N 45°11' E 014°26'4 0.2
2018-Apr-07 13:15N 45°15' E 014°26'  
Track history (hours):
 
Tides and Currents Weather Stations Pressure Air Temp Water Temp Dewpoint Dewpoint Depression Visibility Wind Speed Wind Dir Waves Ship Positions

Adriana

Last reported at 2018-Apr-16 13:17 UTC. Time now 2018-Apr-22 20:20 UTC.
Position N 45°15' E 014°26'.

Length 40 m; beam 10 m.

Type: High speed craft. MMSI: 238112440.

Date/timePositionNaut miles runAvg speedWind from/ knotsBaromVisibWave heightAir tempDewpointWater temp
2018-Apr-16 13:17N 45°15' E 014°26'2 0.1
2018-Apr-15 13:11N 45°17' E 014°26'0 0.0
2018-Apr-14 06:39N 45°17' E 014°26'1323.6
2018-Apr-14 06:06N 45°04' E 014°26'11 0.7
2018-Apr-13 14:17N 44°55' E 014°33'621.5
2018-Apr-13 14:00N 44°60' E 014°28'1120.7
2018-Apr-13 13:28N 45°11' E 014°26'8 1.1
2018-Apr-13 06:40N 45°18' E 014°26'423.7
2018-Apr-13 06:31N 45°15' E 014°26'1223.3
2018-Apr-13 06:00N 45°03' E 014°26'1323.3
2018-Apr-13 05:28N 44°52' E 014°35'1212.8
2018-Apr-13 04:33N 44°42' E 014°43'623.6
2018-Apr-13 04:19N 44°37' E 014°47'2 0.1
2018-Apr-12 15:30N 44°36' E 014°48'1113.5
2018-Apr-12 14:40N 44°46' E 014°41'422.4
2018-Apr-12 14:29N 44°49' E 014°37'27 1.1
2018-Apr-11 13:17N 45°15' E 014°26'  
2018-Apr-08 13:31N 45°09' E 014°26'223.0
2018-Apr-08 13:25N 45°11' E 014°26'4 0.2
2018-Apr-07 13:15N 45°15' E 014°26'  

Dump ship's entire track history